sensor_id;sensor_type;location;lat;lon;timestamp;P1;durP1;ratioP1;P2;durP2;ratioP2
16579;SDS011;8402;51.466;6.806;2023-09-19T00:01:15;6.38;;;1.35;;
16579;SDS011;8402;51.466;6.806;2023-09-19T00:03:47;10.43;;;2.15;;
16579;SDS011;8402;51.466;6.806;2023-09-19T00:06:17;8.80;;;1.88;;
16579;SDS011;8402;51.466;6.806;2023-09-19T00:08:47;12.15;;;2.35;;
16579;SDS011;8402;51.466;6.806;2023-09-19T00:11:19;13.10;;;2.22;;
16579;SDS011;8402;51.466;6.806;2023-09-19T00:13:52;11.40;;;2.10;;
16579;SDS011;8402;51.466;6.806;2023-09-19T00:16:25;5.88;;;1.85;;
16579;SDS011;8402;51.466;6.806;2023-09-19T00:18:56;8.87;;;2.00;;
16579;SDS011;8402;51.466;6.806;2023-09-19T00:21:26;7.55;;;1.90;;
16579;SDS011;8402;51.466;6.806;2023-09-19T00:23:56;7.93;;;1.85;;
16579;SDS011;8402;51.466;6.806;2023-09-19T00:26:28;9.50;;;2.57;;
16579;SDS011;8402;51.466;6.806;2023-09-19T00:28:58;7.15;;;1.90;;
16579;SDS011;8402;51.466;6.806;2023-09-19T00:31:35;9.90;;;2.67;;
16579;SDS011;8402;51.466;6.806;2023-09-19T00:34:06;6.43;;;1.83;;
16579;SDS011;8402;51.466;6.806;2023-09-19T00:36:37;7.43;;;1.77;;
16579;SDS011;8402;51.466;6.806;2023-09-19T00:39:09;9.30;;;2.70;;
16579;SDS011;8402;51.466;6.806;2023-09-19T00:41:42;11.20;;;2.03;;
16579;SDS011;8402;51.466;6.806;2023-09-19T00:44:12;7.25;;;2.38;;
16579;SDS011;8402;51.466;6.806;2023-09-19T00:46:42;11.10;;;2.07;;
16579;SDS011;8402;51.466;6.806;2023-09-19T00:49:16;6.65;;;1.52;;
16579;SDS011;8402;51.466;6.806;2023-09-19T00:51:48;8.07;;;1.90;;
16579;SDS011;8402;51.466;6.806;2023-09-19T00:54:18;5.77;;;1.80;;
16579;SDS011;8402;51.466;6.806;2023-09-19T00:56:51;6.23;;;1.90;;
16579;SDS011;8402;51.466;6.806;2023-09-19T00:59:21;6.73;;;2.43;;
16579;SDS011;8402;51.466;6.806;2023-09-19T01:01:51;11.57;;;2.20;;
16579;SDS011;8402;51.466;6.806;2023-09-19T01:04:23;10.53;;;1.80;;
16579;SDS011;8402;51.466;6.806;2023-09-19T01:06:54;13.60;;;1.90;;
16579;SDS011;8402;51.466;6.806;2023-09-19T01:09:24;8.80;;;1.83;;
16579;SDS011;8402;51.466;6.806;2023-09-19T01:11:58;5.83;;;1.67;;
16579;SDS011;8402;51.466;6.806;2023-09-19T01:14:34;6.20;;;2.00;;
16579;SDS011;8402;51.466;6.806;2023-09-19T01:17:13;13.93;;;2.20;;
16579;SDS011;8402;51.466;6.806;2023-09-19T01:22:57;4.45;;;1.60;;
16579;SDS011;8402;51.466;6.806;2023-09-19T01:25:44;12.00;;;1.73;;
16579;SDS011;8402;51.466;6.806;2023-09-19T01:28:34;7.23;;;1.70;;
16579;SDS011;8402;51.466;6.806;2023-09-19T01:31:11;10.70;;;2.13;;
16579;SDS011;8402;51.466;6.806;2023-09-19T01:33:55;6.50;;;1.97;;
16579;SDS011;8402;51.466;6.806;2023-09-19T01:36:28;11.63;;;1.50;;
16579;SDS011;8402;51.466;6.806;2023-09-19T01:39:02;7.67;;;1.70;;
16579;SDS011;8402;51.466;6.806;2023-09-19T01:41:41;8.13;;;1.87;;
16579;SDS011;8402;51.466;6.806;2023-09-19T01:44:22;9.70;;;1.90;;
16579;SDS011;8402;51.466;6.806;2023-09-19T01:46:59;11.07;;;2.20;;
16579;SDS011;8402;51.466;6.806;2023-09-19T01:49:41;7.33;;;1.50;;
16579;SDS011;8402;51.466;6.806;2023-09-19T01:52:19;10.30;;;1.90;;
16579;SDS011;8402;51.466;6.806;2023-09-19T01:54:52;9.50;;;2.10;;
16579;SDS011;8402;51.466;6.806;2023-09-19T01:57:32;9.70;;;2.00;;
16579;SDS011;8402;51.466;6.806;2023-09-19T02:00:10;8.50;;;2.10;;
16579;SDS011;8402;51.466;6.806;2023-09-19T02:02:46;7.60;;;1.70;;
16579;SDS011;8402;51.466;6.806;2023-09-19T02:05:22;9.47;;;1.87;;
16579;SDS011;8402;51.466;6.806;2023-09-19T02:07:54;10.80;;;1.80;;
16579;SDS011;8402;51.466;6.806;2023-09-19T02:10:25;7.60;;;1.93;;
16579;SDS011;8402;51.466;6.806;2023-09-19T02:12:55;7.60;;;1.73;;
16579;SDS011;8402;51.466;6.806;2023-09-19T02:15:25;7.40;;;1.80;;
16579;SDS011;8402;51.466;6.806;2023-09-19T02:18:01;11.13;;;2.03;;
16579;SDS011;8402;51.466;6.806;2023-09-19T02:20:32;6.90;;;1.83;;
16579;SDS011;8402;51.466;6.806;2023-09-19T02:23:02;10.93;;;1.90;;
16579;SDS011;8402;51.466;6.806;2023-09-19T02:25:32;9.77;;;1.70;;
16579;SDS011;8402;51.466;6.806;2023-09-19T02:28:02;12.30;;;2.20;;
16579;SDS011;8402;51.466;6.806;2023-09-19T02:30:33;10.70;;;2.07;;
16579;SDS011;8402;51.466;6.806;2023-09-19T02:33:06;6.33;;;1.70;;
16579;SDS011;8402;51.466;6.806;2023-09-19T02:35:37;10.20;;;2.00;;
16579;SDS011;8402;51.466;6.806;2023-09-19T02:38:07;7.03;;;1.63;;
16579;SDS011;8402;51.466;6.806;2023-09-19T02:40:38;9.53;;;2.10;;
16579;SDS011;8402;51.466;6.806;2023-09-19T02:43:10;8.50;;;1.50;;
16579;SDS011;8402;51.466;6.806;2023-09-19T02:45:40;7.57;;;1.50;;
16579;SDS011;8402;51.466;6.806;2023-09-19T02:48:12;12.87;;;1.80;;
16579;SDS011;8402;51.466;6.806;2023-09-19T02:50:42;9.43;;;1.77;;
16579;SDS011;8402;51.466;6.806;2023-09-19T02:53:13;6.00;;;1.90;;
16579;SDS011;8402;51.466;6.806;2023-09-19T02:55:43;9.70;;;2.20;;
16579;SDS011;8402;51.466;6.806;2023-09-19T02:58:13;9.50;;;2.00;;
16579;SDS011;8402;51.466;6.806;2023-09-19T03:00:45;5.40;;;1.83;;
16579;SDS011;8402;51.466;6.806;2023-09-19T03:03:19;12.50;;;1.93;;
16579;SDS011;8402;51.466;6.806;2023-09-19T03:05:49;14.87;;;2.60;;
16579;SDS011;8402;51.466;6.806;2023-09-19T03:08:21;7.40;;;1.90;;
16579;SDS011;8402;51.466;6.806;2023-09-19T03:10:51;10.23;;;1.90;;
16579;SDS011;8402;51.466;6.806;2023-09-19T03:13:21;12.20;;;1.90;;
16579;SDS011;8402;51.466;6.806;2023-09-19T03:15:53;13.37;;;2.10;;
16579;SDS011;8402;51.466;6.806;2023-09-19T03:18:27;8.20;;;2.07;;
16579;SDS011;8402;51.466;6.806;2023-09-19T03:20:58;8.47;;;2.03;;
16579;SDS011;8402;51.466;6.806;2023-09-19T03:23:29;12.07;;;1.80;;
16579;SDS011;8402;51.466;6.806;2023-09-19T03:25:59;7.47;;;1.70;;
16579;SDS011;8402;51.466;6.806;2023-09-19T03:28:32;13.50;;;1.93;;
16579;SDS011;8402;51.466;6.806;2023-09-19T03:31:03;15.03;;;2.10;;
16579;SDS011;8402;51.466;6.806;2023-09-19T03:33:37;9.00;;;1.70;;
16579;SDS011;8402;51.466;6.806;2023-09-19T03:36:08;4.73;;;1.60;;
16579;SDS011;8402;51.466;6.806;2023-09-19T03:38:39;16.07;;;2.27;;
16579;SDS011;8402;51.466;6.806;2023-09-19T03:41:09;13.17;;;2.00;;
16579;SDS011;8402;51.466;6.806;2023-09-19T03:43:41;10.53;;;2.43;;
16579;SDS011;8402;51.466;6.806;2023-09-19T03:46:11;8.17;;;1.97;;
16579;SDS011;8402;51.466;6.806;2023-09-19T03:48:44;12.47;;;1.80;;
16579;SDS011;8402;51.466;6.806;2023-09-19T03:51:14;7.37;;;2.13;;
16579;SDS011;8402;51.466;6.806;2023-09-19T03:53:44;10.67;;;1.73;;
16579;SDS011;8402;51.466;6.806;2023-09-19T03:56:15;13.90;;;2.27;;
16579;SDS011;8402;51.466;6.806;2023-09-19T03:58:45;8.77;;;2.07;;
16579;SDS011;8402;51.466;6.806;2023-09-19T04:01:17;8.43;;;1.80;;
16579;SDS011;8402;51.466;6.806;2023-09-19T04:03:50;7.33;;;2.37;;
16579;SDS011;8402;51.466;6.806;2023-09-19T04:06:20;8.40;;;1.90;;
16579;SDS011;8402;51.466;6.806;2023-09-19T04:08:50;6.47;;;1.80;;
16579;SDS011;8402;51.466;6.806;2023-09-19T04:11:21;5.37;;;1.93;;
16579;SDS011;8402;51.466;6.806;2023-09-19T04:13:50;11.40;;;2.43;;
16579;SDS011;8402;51.466;6.806;2023-09-19T04:16:21;10.83;;;2.50;;
16579;SDS011;8402;51.466;6.806;2023-09-19T04:18:53;9.50;;;2.97;;
16579;SDS011;8402;51.466;6.806;2023-09-19T04:21:23;11.53;;;2.90;;
16579;SDS011;8402;51.466;6.806;2023-09-19T04:23:54;7.30;;;2.07;;
16579;SDS011;8402;51.466;6.806;2023-09-19T04:26:24;7.40;;;2.50;;
16579;SDS011;8402;51.466;6.806;2023-09-19T04:28:54;10.40;;;2.47;;
16579;SDS011;8402;51.466;6.806;2023-09-19T04:31:24;8.40;;;2.27;;
16579;SDS011;8402;51.466;6.806;2023-09-19T04:33:58;14.67;;;2.40;;
16579;SDS011;8402;51.466;6.806;2023-09-19T04:36:31;8.73;;;2.20;;
16579;SDS011;8402;51.466;6.806;2023-09-19T04:39:03;11.90;;;2.30;;
16579;SDS011;8402;51.466;6.806;2023-09-19T04:41:34;12.27;;;2.60;;
16579;SDS011;8402;51.466;6.806;2023-09-19T04:44:05;8.67;;;2.07;;
16579;SDS011;8402;51.466;6.806;2023-09-19T04:46:35;9.53;;;1.93;;
16579;SDS011;8402;51.466;6.806;2023-09-19T04:49:08;10.13;;;2.00;;
16579;SDS011;8402;51.466;6.806;2023-09-19T04:51:39;10.47;;;1.63;;
16579;SDS011;8402;51.466;6.806;2023-09-19T04:54:13;7.67;;;2.00;;
16579;SDS011;8402;51.466;6.806;2023-09-19T04:56:44;6.73;;;1.77;;
16579;SDS011;8402;51.466;6.806;2023-09-19T04:59:14;7.63;;;1.70;;
16579;SDS011;8402;51.466;6.806;2023-09-19T05:01:45;8.47;;;2.07;;
16579;SDS011;8402;51.466;6.806;2023-09-19T05:04:17;10.33;;;2.33;;
16579;SDS011;8402;51.466;6.806;2023-09-19T05:06:47;11.53;;;1.93;;
16579;SDS011;8402;51.466;6.806;2023-09-19T05:09:17;8.40;;;2.17;;
16579;SDS011;8402;51.466;6.806;2023-09-19T05:11:47;11.97;;;2.90;;
16579;SDS011;8402;51.466;6.806;2023-09-19T05:14:18;9.33;;;3.20;;
16579;SDS011;8402;51.466;6.806;2023-09-19T05:16:49;10.57;;;2.13;;
16579;SDS011;8402;51.466;6.806;2023-09-19T05:19:21;9.30;;;2.50;;
16579;SDS011;8402;51.466;6.806;2023-09-19T05:21:51;6.60;;;2.30;;
16579;SDS011;8402;51.466;6.806;2023-09-19T05:24:21;12.13;;;2.70;;
16579;SDS011;8402;51.466;6.806;2023-09-19T05:26:53;16.83;;;2.90;;
16579;SDS011;8402;51.466;6.806;2023-09-19T05:29:23;14.47;;;3.00;;
16579;SDS011;8402;51.466;6.806;2023-09-19T05:31:53;13.07;;;2.60;;
16579;SDS011;8402;51.466;6.806;2023-09-19T05:34:26;16.57;;;2.50;;
16579;SDS011;8402;51.466;6.806;2023-09-19T05:36:57;10.17;;;2.03;;
16579;SDS011;8402;51.466;6.806;2023-09-19T05:39:27;10.00;;;2.43;;
16579;SDS011;8402;51.466;6.806;2023-09-19T05:41:57;16.33;;;2.60;;
16579;SDS011;8402;51.466;6.806;2023-09-19T05:44:27;12.43;;;2.77;;
16579;SDS011;8402;51.466;6.806;2023-09-19T05:46:59;16.70;;;2.87;;
16579;SDS011;8402;51.466;6.806;2023-09-19T05:49:32;14.73;;;2.97;;
16579;SDS011;8402;51.466;6.806;2023-09-19T05:52:07;14.10;;;2.80;;
16579;SDS011;8402;51.466;6.806;2023-09-19T05:54:37;8.47;;;2.07;;
16579;SDS011;8402;51.466;6.806;2023-09-19T05:57:09;9.17;;;2.40;;
16579;SDS011;8402;51.466;6.806;2023-09-19T05:59:39;13.20;;;2.63;;
16579;SDS011;8402;51.466;6.806;2023-09-19T06:02:10;8.57;;;2.50;;
16579;SDS011;8402;51.466;6.806;2023-09-19T06:04:43;12.73;;;2.57;;
16579;SDS011;8402;51.466;6.806;2023-09-19T06:07:13;15.57;;;3.30;;
16579;SDS011;8402;51.466;6.806;2023-09-19T06:09:43;12.17;;;3.20;;
16579;SDS011;8402;51.466;6.806;2023-09-19T06:12:13;10.57;;;2.20;;
16579;SDS011;8402;51.466;6.806;2023-09-19T06:14:43;12.70;;;2.50;;
16579;SDS011;8402;51.466;6.806;2023-09-19T06:17:14;12.17;;;2.60;;
16579;SDS011;8402;51.466;6.806;2023-09-19T06:19:49;13.67;;;2.83;;
16579;SDS011;8402;51.466;6.806;2023-09-19T06:22:18;18.30;;;3.20;;
16579;SDS011;8402;51.466;6.806;2023-09-19T06:24:49;15.10;;;2.73;;
16579;SDS011;8402;51.466;6.806;2023-09-19T06:27:19;12.53;;;2.70;;
16579;SDS011;8402;51.466;6.806;2023-09-19T06:29:49;11.20;;;2.83;;
16579;SDS011;8402;51.466;6.806;2023-09-19T06:32:26;14.33;;;2.37;;
16579;SDS011;8402;51.466;6.806;2023-09-19T06:34:59;9.67;;;2.23;;
16579;SDS011;8402;51.466;6.806;2023-09-19T06:37:29;13.97;;;2.80;;
16579;SDS011;8402;51.466;6.806;2023-09-19T06:40:01;9.23;;;2.57;;
16579;SDS011;8402;51.466;6.806;2023-09-19T06:42:32;6.47;;;2.67;;
16579;SDS011;8402;51.466;6.806;2023-09-19T06:45:04;11.23;;;2.67;;
16579;SDS011;8402;51.466;6.806;2023-09-19T06:47:35;12.47;;;2.37;;
16579;SDS011;8402;51.466;6.806;2023-09-19T06:50:08;11.63;;;2.17;;
16579;SDS011;8402;51.466;6.806;2023-09-19T06:52:41;11.33;;;2.03;;
16579;SDS011;8402;51.466;6.806;2023-09-19T06:55:11;9.20;;;2.70;;
16579;SDS011;8402;51.466;6.806;2023-09-19T06:57:42;13.17;;;2.60;;
16579;SDS011;8402;51.466;6.806;2023-09-19T07:00:13;10.50;;;2.40;;
16579;SDS011;8402;51.466;6.806;2023-09-19T07:02:45;11.57;;;2.67;;
16579;SDS011;8402;51.466;6.806;2023-09-19T07:05:26;9.93;;;2.40;;
16579;SDS011;8402;51.466;6.806;2023-09-19T07:07:57;9.67;;;2.20;;
16579;SDS011;8402;51.466;6.806;2023-09-19T07:10:29;15.33;;;2.07;;
16579;SDS011;8402;51.466;6.806;2023-09-19T07:13:00;7.80;;;2.60;;
16579;SDS011;8402;51.466;6.806;2023-09-19T07:15:33;12.00;;;2.40;;
16579;SDS011;8402;51.466;6.806;2023-09-19T07:18:06;9.80;;;2.40;;
16579;SDS011;8402;51.466;6.806;2023-09-19T07:20:40;10.03;;;1.80;;
16579;SDS011;8402;51.466;6.806;2023-09-19T07:23:12;14.30;;;2.53;;
16579;SDS011;8402;51.466;6.806;2023-09-19T07:25:42;8.73;;;1.67;;
16579;SDS011;8402;51.466;6.806;2023-09-19T07:28:14;16.30;;;2.37;;
16579;SDS011;8402;51.466;6.806;2023-09-19T07:30:44;9.17;;;2.00;;
16579;SDS011;8402;51.466;6.806;2023-09-19T07:33:14;9.33;;;2.20;;
16579;SDS011;8402;51.466;6.806;2023-09-19T07:35:47;14.77;;;2.40;;
16579;SDS011;8402;51.466;6.806;2023-09-19T07:38:18;17.50;;;1.90;;
16579;SDS011;8402;51.466;6.806;2023-09-19T07:40:49;10.40;;;2.00;;
16579;SDS011;8402;51.466;6.806;2023-09-19T07:43:19;8.00;;;2.13;;
16579;SDS011;8402;51.466;6.806;2023-09-19T07:45:49;11.37;;;2.33;;
16579;SDS011;8402;51.466;6.806;2023-09-19T07:48:19;8.37;;;1.80;;
16579;SDS011;8402;51.466;6.806;2023-09-19T07:50:53;13.07;;;2.70;;
16579;SDS011;8402;51.466;6.806;2023-09-19T07:53:23;8.47;;;1.97;;
16579;SDS011;8402;51.466;6.806;2023-09-19T07:56:01;12.10;;;2.77;;
16579;SDS011;8402;51.466;6.806;2023-09-19T07:58:31;11.53;;;2.00;;
16579;SDS011;8402;51.466;6.806;2023-09-19T08:01:03;8.60;;;2.25;;
16579;SDS011;8402;51.466;6.806;2023-09-19T08:03:34;12.95;;;2.47;;
16579;SDS011;8402;51.466;6.806;2023-09-19T08:06:10;14.33;;;2.97;;
16579;SDS011;8402;51.466;6.806;2023-09-19T08:08:41;12.20;;;2.77;;
16579;SDS011;8402;51.466;6.806;2023-09-19T08:11:11;12.57;;;2.70;;
16579;SDS011;8402;51.466;6.806;2023-09-19T08:13:48;13.73;;;2.80;;
16579;SDS011;8402;51.466;6.806;2023-09-19T08:16:18;9.30;;;2.45;;
16579;SDS011;8402;51.466;6.806;2023-09-19T08:18:49;11.52;;;2.50;;
16579;SDS011;8402;51.466;6.806;2023-09-19T08:21:24;14.93;;;2.95;;
16579;SDS011;8402;51.466;6.806;2023-09-19T08:23:56;11.63;;;2.47;;
16579;SDS011;8402;51.466;6.806;2023-09-19T08:26:28;9.65;;;2.40;;
16579;SDS011;8402;51.466;6.806;2023-09-19T08:28:58;8.82;;;2.00;;
16579;SDS011;8402;51.466;6.806;2023-09-19T08:31:32;10.63;;;2.38;;
16579;SDS011;8402;51.466;6.806;2023-09-19T08:34:04;9.75;;;2.28;;
16579;SDS011;8402;51.466;6.806;2023-09-19T08:36:36;11.73;;;2.38;;
16579;SDS011;8402;51.466;6.806;2023-09-19T08:39:08;10.20;;;2.10;;
16579;SDS011;8402;51.466;6.806;2023-09-19T08:41:38;14.95;;;3.35;;
16579;SDS011;8402;51.466;6.806;2023-09-19T08:44:08;12.65;;;2.67;;
16579;SDS011;8402;51.466;6.806;2023-09-19T08:46:38;9.25;;;2.60;;
16579;SDS011;8402;51.466;6.806;2023-09-19T08:49:13;9.93;;;2.13;;
16579;SDS011;8402;51.466;6.806;2023-09-19T08:52:01;13.27;;;2.60;;
16579;SDS011;8402;51.466;6.806;2023-09-19T08:54:37;12.52;;;2.72;;
16579;SDS011;8402;51.466;6.806;2023-09-19T08:57:10;13.02;;;2.45;;
16579;SDS011;8402;51.466;6.806;2023-09-19T08:59:47;6.93;;;2.10;;
16579;SDS011;8402;51.466;6.806;2023-09-19T09:02:18;8.73;;;2.50;;
16579;SDS011;8402;51.466;6.806;2023-09-19T09:04:49;11.88;;;2.63;;
16579;SDS011;8402;51.466;6.806;2023-09-19T09:07:23;9.50;;;2.25;;
16579;SDS011;8402;51.466;6.806;2023-09-19T09:09:55;7.82;;;2.47;;
16579;SDS011;8402;51.466;6.806;2023-09-19T09:12:25;11.82;;;2.30;;
16579;SDS011;8402;51.466;6.806;2023-09-19T09:14:56;10.77;;;2.58;;
16579;SDS011;8402;51.466;6.806;2023-09-19T09:17:30;11.40;;;2.15;;
16579;SDS011;8402;51.466;6.806;2023-09-19T09:20:00;15.68;;;2.80;;
16579;SDS011;8402;51.466;6.806;2023-09-19T09:22:34;7.82;;;2.75;;
16579;SDS011;8402;51.466;6.806;2023-09-19T09:25:06;10.30;;;2.85;;
16579;SDS011;8402;51.466;6.806;2023-09-19T09:27:36;12.13;;;2.97;;
16579;SDS011;8402;51.466;6.806;2023-09-19T09:30:10;17.30;;;4.20;;
16579;SDS011;8402;51.466;6.806;2023-09-19T09:33:07;18.23;;;3.47;;
16579;SDS011;8402;51.466;6.806;2023-09-19T09:35:46;14.43;;;3.60;;
16579;SDS011;8402;51.466;6.806;2023-09-19T09:38:22;17.15;;;4.45;;
16579;SDS011;8402;51.466;6.806;2023-09-19T09:40:59;17.42;;;3.75;;
16579;SDS011;8402;51.466;6.806;2023-09-19T09:43:34;12.55;;;2.65;;
16579;SDS011;8402;51.466;6.806;2023-09-19T09:46:06;10.43;;;2.00;;
16579;SDS011;8402;51.466;6.806;2023-09-19T09:48:59;9.50;;;2.00;;
16579;SDS011;8402;51.466;6.806;2023-09-19T09:51:45;4.93;;;1.45;;
16579;SDS011;8402;51.466;6.806;2023-09-19T09:54:27;10.30;;;1.95;;
16579;SDS011;8402;51.466;6.806;2023-09-19T09:57:03;10.45;;;1.90;;
16579;SDS011;8402;51.466;6.806;2023-09-19T09:59:44;7.90;;;1.90;;
16579;SDS011;8402;51.466;6.806;2023-09-19T10:02:16;11.82;;;2.10;;
16579;SDS011;8402;51.466;6.806;2023-09-19T10:04:52;10.02;;;2.42;;
16579;SDS011;8402;51.466;6.806;2023-09-19T10:07:36;14.88;;;2.17;;
16579;SDS011;8402;51.466;6.806;2023-09-19T10:10:13;11.10;;;2.35;;
16579;SDS011;8402;51.466;6.806;2023-09-19T10:12:48;9.20;;;2.63;;
16579;SDS011;8402;51.466;6.806;2023-09-19T10:15:18;14.70;;;2.92;;
16579;SDS011;8402;51.466;6.806;2023-09-19T10:17:51;14.82;;;3.38;;
16579;SDS011;8402;51.466;6.806;2023-09-19T10:20:26;11.75;;;2.78;;
16579;SDS011;8402;51.466;6.806;2023-09-19T10:23:05;9.05;;;2.70;;
16579;SDS011;8402;51.466;6.806;2023-09-19T10:25:43;11.43;;;2.95;;
16579;SDS011;8402;51.466;6.806;2023-09-19T10:28:14;17.08;;;2.83;;
16579;SDS011;8402;51.466;6.806;2023-09-19T10:30:50;9.50;;;2.75;;
16579;SDS011;8402;51.466;6.806;2023-09-19T10:33:21;5.65;;;1.80;;
16579;SDS011;8402;51.466;6.806;2023-09-19T10:35:53;8.02;;;1.70;;
16579;SDS011;8402;51.466;6.806;2023-09-19T10:38:27;5.13;;;1.63;;
16579;SDS011;8402;51.466;6.806;2023-09-19T10:41:01;8.40;;;2.08;;
16579;SDS011;8402;51.466;6.806;2023-09-19T10:43:33;8.18;;;1.73;;
16579;SDS011;8402;51.466;6.806;2023-09-19T10:46:06;5.90;;;1.70;;
16579;SDS011;8402;51.466;6.806;2023-09-19T10:48:39;7.45;;;2.05;;
16579;SDS011;8402;51.466;6.806;2023-09-19T10:51:11;8.13;;;2.22;;
16579;SDS011;8402;51.466;6.806;2023-09-19T10:53:47;8.25;;;1.80;;
16579;SDS011;8402;51.466;6.806;2023-09-19T10:56:24;12.73;;;2.28;;
16579;SDS011;8402;51.466;6.806;2023-09-19T10:59:05;8.60;;;1.95;;
16579;SDS011;8402;51.466;6.806;2023-09-19T11:01:43;18.80;;;2.35;;
16579;SDS011;8402;51.466;6.806;2023-09-19T11:04:22;23.00;;;3.70;;
16579;SDS011;8402;51.466;6.806;2023-09-19T11:07:00;11.73;;;2.40;;
16579;SDS011;8402;51.466;6.806;2023-09-19T11:09:45;13.52;;;2.67;;
16579;SDS011;8402;51.466;6.806;2023-09-19T11:24:27;16.85;;;3.35;;
16579;SDS011;8402;51.466;6.806;2023-09-19T11:27:10;7.50;;;2.00;;
16579;SDS011;8402;51.466;6.806;2023-09-19T11:29:44;12.85;;;3.72;;
16579;SDS011;8402;51.466;6.806;2023-09-19T11:32:15;17.15;;;3.55;;
16579;SDS011;8402;51.466;6.806;2023-09-19T11:34:47;13.05;;;3.28;;
16579;SDS011;8402;51.466;6.806;2023-09-19T11:40:37;10.00;;;2.05;;
16579;SDS011;8402;51.466;6.806;2023-09-19T11:46:06;7.57;;;2.03;;
16579;SDS011;8402;51.466;6.806;2023-09-19T11:48:40;10.63;;;1.90;;
16579;SDS011;8402;51.466;6.806;2023-09-19T11:51:12;8.68;;;1.77;;
16579;SDS011;8402;51.466;6.806;2023-09-19T11:53:46;19.40;;;2.22;;
16579;SDS011;8402;51.466;6.806;2023-09-19T11:56:20;7.00;;;1.85;;
16579;SDS011;8402;51.466;6.806;2023-09-19T11:58:52;12.70;;;2.10;;
16579;SDS011;8402;51.466;6.806;2023-09-19T12:01:25;9.90;;;2.25;;
16579;SDS011;8402;51.466;6.806;2023-09-19T12:03:59;4.85;;;1.95;;
16579;SDS011;8402;51.466;6.806;2023-09-19T12:06:31;9.27;;;2.03;;
16579;SDS011;8402;51.466;6.806;2023-09-19T12:09:02;10.88;;;2.00;;
16579;SDS011;8402;51.466;6.806;2023-09-19T12:11:43;5.60;;;1.63;;
16579;SDS011;8402;51.466;6.806;2023-09-19T12:14:21;10.95;;;2.72;;
16579;SDS011;8402;51.466;6.806;2023-09-19T12:16:53;8.98;;;1.90;;
16579;SDS011;8402;51.466;6.806;2023-09-19T12:19:24;16.17;;;2.47;;
16579;SDS011;8402;51.466;6.806;2023-09-19T12:21:59;15.23;;;2.30;;
16579;SDS011;8402;51.466;6.806;2023-09-19T12:24:31;12.45;;;2.80;;
16579;SDS011;8402;51.466;6.806;2023-09-19T12:27:07;6.63;;;2.15;;
16579;SDS011;8402;51.466;6.806;2023-09-19T12:29:42;10.45;;;2.10;;
16579;SDS011;8402;51.466;6.806;2023-09-19T12:32:13;11.32;;;2.47;;
16579;SDS011;8402;51.466;6.806;2023-09-19T12:34:50;9.88;;;1.95;;
16579;SDS011;8402;51.466;6.806;2023-09-19T12:37:21;8.55;;;1.90;;
16579;SDS011;8402;51.466;6.806;2023-09-19T12:40:03;6.55;;;1.90;;
16579;SDS011;8402;51.466;6.806;2023-09-19T12:42:45;6.68;;;2.47;;
16579;SDS011;8402;51.466;6.806;2023-09-19T12:45:16;8.65;;;2.40;;
16579;SDS011;8402;51.466;6.806;2023-09-19T12:51:01;9.55;;;2.28;;
16579;SDS011;8402;51.466;6.806;2023-09-19T12:53:36;6.50;;;2.30;;
16579;SDS011;8402;51.466;6.806;2023-09-19T12:56:10;9.50;;;2.53;;
16579;SDS011;8402;51.466;6.806;2023-09-19T12:58:52;12.00;;;1.85;;
16579;SDS011;8402;51.466;6.806;2023-09-19T13:01:25;6.60;;;1.48;;
16579;SDS011;8402;51.466;6.806;2023-09-19T13:04:15;6.82;;;1.42;;
16579;SDS011;8402;51.466;6.806;2023-09-19T13:06:52;5.30;;;2.15;;
16579;SDS011;8402;51.466;6.806;2023-09-19T13:09:28;15.23;;;2.55;;
16579;SDS011;8402;51.466;6.806;2023-09-19T13:12:02;7.88;;;1.95;;
16579;SDS011;8402;51.466;6.806;2023-09-19T13:14:36;9.70;;;1.90;;
16579;SDS011;8402;51.466;6.806;2023-09-19T13:17:07;7.22;;;1.52;;
16579;SDS011;8402;51.466;6.806;2023-09-19T13:19:43;10.45;;;2.17;;
16579;SDS011;8402;51.466;6.806;2023-09-19T13:25:09;8.30;;;1.80;;
16579;SDS011;8402;51.466;6.806;2023-09-19T13:27:45;6.40;;;1.70;;
16579;SDS011;8402;51.466;6.806;2023-09-19T13:30:22;16.08;;;2.30;;
16579;SDS011;8402;51.466;6.806;2023-09-19T13:33:04;6.88;;;1.50;;
16579;SDS011;8402;51.466;6.806;2023-09-19T13:35:36;5.90;;;1.52;;
16579;SDS011;8402;51.466;6.806;2023-09-19T13:38:08;4.28;;;1.45;;
16579;SDS011;8402;51.466;6.806;2023-09-19T13:40:39;12.88;;;1.30;;
16579;SDS011;8402;51.466;6.806;2023-09-19T13:43:10;4.80;;;1.08;;
16579;SDS011;8402;51.466;6.806;2023-09-19T13:45:43;5.82;;;1.40;;
16579;SDS011;8402;51.466;6.806;2023-09-19T13:48:13;4.32;;;1.35;;
16579;SDS011;8402;51.466;6.806;2023-09-19T13:50:46;7.78;;;1.90;;
16579;SDS011;8402;51.466;6.806;2023-09-19T13:53:16;5.45;;;1.10;;
16579;SDS011;8402;51.466;6.806;2023-09-19T13:55:46;5.35;;;1.33;;
16579;SDS011;8402;51.466;6.806;2023-09-19T13:58:16;4.00;;;1.30;;
16579;SDS011;8402;51.466;6.806;2023-09-19T14:00:48;3.90;;;1.10;;
16579;SDS011;8402;51.466;6.806;2023-09-19T14:03:21;5.95;;;1.98;;
16579;SDS011;8402;51.466;6.806;2023-09-19T14:05:55;4.50;;;1.35;;
16579;SDS011;8402;51.466;6.806;2023-09-19T14:08:24;5.43;;;1.20;;
16579;SDS011;8402;51.466;6.806;2023-09-19T14:10:54;2.10;;;0.80;;
16579;SDS011;8402;51.466;6.806;2023-09-19T14:13:24;3.67;;;1.00;;
16579;SDS011;8402;51.466;6.806;2023-09-19T14:15:57;1.98;;;1.00;;
16579;SDS011;8402;51.466;6.806;2023-09-19T14:18:27;4.60;;;1.00;;
16579;SDS011;8402;51.466;6.806;2023-09-19T14:20:57;8.18;;;1.23;;
16579;SDS011;8402;51.466;6.806;2023-09-19T14:23:27;3.70;;;1.60;;
16579;SDS011;8402;51.466;6.806;2023-09-19T14:26:00;2.70;;;1.23;;
16579;SDS011;8402;51.466;6.806;2023-09-19T14:28:31;5.55;;;1.20;;
16579;SDS011;8402;51.466;6.806;2023-09-19T14:31:09;4.57;;;1.42;;
16579;SDS011;8402;51.466;6.806;2023-09-19T14:33:41;5.07;;;1.20;;
16579;SDS011;8402;51.466;6.806;2023-09-19T14:36:11;5.68;;;1.50;;
16579;SDS011;8402;51.466;6.806;2023-09-19T14:38:41;13.50;;;2.13;;
16579;SDS011;8402;51.466;6.806;2023-09-19T14:41:11;6.63;;;1.92;;
16579;SDS011;8402;51.466;6.806;2023-09-19T14:43:41;5.90;;;2.15;;
16579;SDS011;8402;51.466;6.806;2023-09-19T14:46:13;6.32;;;1.50;;
16579;SDS011;8402;51.466;6.806;2023-09-19T14:48:44;3.50;;;1.20;;
16579;SDS011;8402;51.466;6.806;2023-09-19T14:51:16;4.65;;;1.75;;
16579;SDS011;8402;51.466;6.806;2023-09-19T14:53:46;7.20;;;2.38;;
16579;SDS011;8402;51.466;6.806;2023-09-19T14:56:16;5.40;;;1.50;;
16579;SDS011;8402;51.466;6.806;2023-09-19T14:58:46;4.57;;;1.30;;
16579;SDS011;8402;51.466;6.806;2023-09-19T15:01:19;2.28;;;0.80;;
16579;SDS011;8402;51.466;6.806;2023-09-19T15:03:49;3.25;;;1.60;;
16579;SDS011;8402;51.466;6.806;2023-09-19T15:06:21;4.90;;;1.30;;
16579;SDS011;8402;51.466;6.806;2023-09-19T15:08:53;10.27;;;1.38;;
16579;SDS011;8402;51.466;6.806;2023-09-19T15:11:23;4.10;;;1.33;;
16579;SDS011;8402;51.466;6.806;2023-09-19T15:13:54;4.50;;;1.08;;
16579;SDS011;8402;51.466;6.806;2023-09-19T15:16:28;4.40;;;0.82;;
16579;SDS011;8402;51.466;6.806;2023-09-19T15:18:59;4.63;;;0.88;;
16579;SDS011;8402;51.466;6.806;2023-09-19T15:21:29;3.13;;;1.00;;
16579;SDS011;8402;51.466;6.806;2023-09-19T15:23:59;2.63;;;0.68;;
16579;SDS011;8402;51.466;6.806;2023-09-19T15:26:29;3.88;;;0.90;;
16579;SDS011;8402;51.466;6.806;2023-09-19T15:28:59;4.78;;;1.00;;
16579;SDS011;8402;51.466;6.806;2023-09-19T15:31:35;3.53;;;0.63;;
16579;SDS011;8402;51.466;6.806;2023-09-19T15:34:05;1.85;;;0.75;;
16579;SDS011;8402;51.466;6.806;2023-09-19T15:36:36;2.83;;;1.00;;
16579;SDS011;8402;51.466;6.806;2023-09-19T15:39:11;2.10;;;0.70;;
16579;SDS011;8402;51.466;6.806;2023-09-19T15:41:44;4.50;;;0.80;;
16579;SDS011;8402;51.466;6.806;2023-09-19T15:44:18;5.15;;;0.90;;
16579;SDS011;8402;51.466;6.806;2023-09-19T15:46:51;3.20;;;0.90;;
16579;SDS011;8402;51.466;6.806;2023-09-19T15:49:22;4.55;;;0.80;;
16579;SDS011;8402;51.466;6.806;2023-09-19T15:51:52;5.25;;;1.10;;
16579;SDS011;8402;51.466;6.806;2023-09-19T15:54:22;3.72;;;1.10;;
16579;SDS011;8402;51.466;6.806;2023-09-19T15:56:54;2.95;;;1.08;;